Weather observations for the past three days for
Russian Mission
Imperial (Metric)
Date Time (akdt) Wind (mph) Vis. (mi.) Weather Sky Cond. Temperature (ºF) Relative Humidity Wind Chill (°F) Heat Index (°F) Pressure Precipitation (in)
Air Dwpt 6 hour altimeter (in) sea level (mb) 1 hr 3 hr 6 hr
Max. Min.
06 18:56 Vrbl 6 10.00 Fair CLR 36 21.9 57% 32 30.07 1018.5
06 17:56 N 9 10.00 Fair CLR 34 21.9 61% 27 30.06 1018.3
06 16:56 N 6 10.00 Mostly Cloudy BKN031 34 21.9 61% 29 30.07 1018.6
06 15:56 N 7 10.00 Mostly Cloudy BKN027 32 21.9 35.1 26.1 66% 26 30.08 1018.8
06 14:56 Vrbl 6 10.00 Mostly Cloudy BKN027 32 21 64% 27 30.08 1018.9
06 13:56 Calm 10.00 Overcast OVC025 30.9 21 67% 30.09 1019.2
06 12:56 Calm 10.00 Overcast OVC021 32 21 64% 30.09 1019.3
06 11:56 Calm 10.00 Overcast OVC017 28.9 21.9 75% 30.08 1019.0
06 10:56 Calm 10.00 Overcast OVC015 27 21 78% 30.08 1019.0
06 09:56 Calm 10.00 Overcast OVC015 26.1 21 26.1 21.9 81% 30.08 1018.9
06 08:56 W 5 10.00 Overcast OVC013 26.1 21 81% 21 30.07 1018.6
06 07:56 W 5 10.00 Overcast OVC013 24.1 21 88% 19 30.06 1018.2
06 06:56 W 5 10.00 Overcast OVC013 24.1 21 88% 19 30.05 1018.0
06 05:56 W 3 10.00 Overcast OVC013 23 21 92% 30.04 1017.6
06 04:56 Calm 10.00 Overcast OVC013 23 19.9 88% 30.03 1017.2
06 03:56 NW 5 10.00 Partly Cloudy SCT015 24.1 21 34 24.1 88% 19 30.02 1016.8
06 02:56 Calm 10.00 Fair CLR 25 21.9 88% 30.01 1016.7
06 01:56 NW 6 10.00 Fair CLR 26.1 21.9 84% 20 30 1016.2
06 00:56 W 3 10.00 Fair CLR 27 23 85% 29.99 1015.9
05 23:56 NW 6 10.00 Fair CLR 28.9 23 78% 23 29.98 1015.4
05 22:56 Vrbl 5 10.00 Fair CLR 30.9 24.1 76% 27 29.96 1015.0
05 21:56 NW 14 G 18 10.00 Fair CLR 34 23 41 34 64% 25 29.95 1014.4
05 20:56 NW 12 G 20 10.00 Fair CLR 36 23 59% 29 29.93 1013.8
05 19:56 NW 9 G 16 10.00 Fair CLR 39 24.1 55% 33 29.93 1013.8
05 18:56 NW 8 G 18 10.00 Fair CLR 39.9 21.9 49% 35 29.9 1012.9
05 17:56 NW 10 G 17 10.00 Fair CLR 39.9 21 47% 34 29.9 1012.7
05 16:56 NW 10 G 18 10.00 Fair CLR 39.9 21 47% 34 29.89 1012.5
05 15:56 N 12 G 20 10.00 Fair CLR 39.9 21.9 39.9 32 49% 34 29.88 1012.2
05 14:56 NW 13 10.00 Fair CLR 37.9 21.9 52% 31 29.88 1012.3
05 13:56 NW 12 G 21 10.00 Fair CLR 37.9 19.9 48% 31 29.87 1011.9
05 12:56 N 10 G 22 10.00 Fair CLR 36 21 55% 29 29.87 1011.7
05 11:56 N 10 G 20 10.00 Fair CLR 35.1 21.9 59% 28 29.86 1011.6
05 10:56 NW 15 G 24 10.00 Fair CLR 34 21.9 61% 25 29.85 1011.0
05 09:56 NW 9 G 18 10.00 Fair CLR 32 21.9 32 28 66% 25 29.84 1010.7
05 08:56 NW 8 G 16 10.00 Fair CLR 30 23 75% 23 29.83 1010.4
05 07:56 NW 12 G 17 10.00 Fair CLR 28.9 23 78% 20 29.81 1009.8
05 06:56 NW 9 G 18 10.00 Fair CLR 28.9 24.1 82% 21 29.8 1009.3
05 05:56 Vrbl 6 10.00 Fair CLR 30 24.1 79% 25 29.78 1008.6
05 04:56 NW 9 G 16 10.00 Fair CLR 30 25 82% 22 29.76 1008.1
05 03:56 NW 8 10.00 Overcast OVC060 32 25 37 32 75% 25 29.76 1007.9
05 02:56 NW 8 10.00 Overcast OVC060 33.1 26.1 75% 27 29.75 1007.6
05 01:56 NW 6 10.00 Mostly Cloudy BKN065 33.1 26.1 75% 28 29.75 1007.6
05 00:56 NW 9 10.00 Overcast FEW045 OVC060 34 26.1 73% 27 29.74 1007.5
04 23:56 NW 9 10.00 Overcast FEW041 OVC060 34 27 76% 27 29.75 1007.7
04 22:56 NW 10 G 17 10.00 A Few Clouds FEW050 35.1 26.1 70% 28 29.75 1007.8
04 21:56 NW 9 10.00 Fair CLR 37 26.1 44.1 37 65% 31 29.75 1007.6
04 20:56 NW 10 G 18 10.00 Fair CLR 39 26.1 60% 33 29.75 1007.7
04 19:56 NW 8 G 16 10.00 Fair CLR 42.1 27 55% 38 29.76 1008.1
04 18:56 N 12 10.00 Fair CLR 44.1 21.9 41% 39 29.77 1008.2
04 17:56 N 12 G 16 10.00 Fair CLR 43 23 45% 37 29.77 1008.5
04 16:56 N 10 G 17 10.00 Fair CLR 42.1 21.9 45% 37 29.8 1009.3
04 15:56 N 9 G 20 10.00 Fair CLR 43 24.1 43 32 47% 38 29.82 1010.3
04 14:56 N 9 G 18 10.00 Fair CLR 42.1 24.1 49% 37 29.86 1011.4
04 13:56 N 10 G 16 10.00 Fair CLR 41 25 53% 35 29.89 1012.5
04 12:56 N 9 10.00 Fair CLR 39 26.1 60% 33 29.92 1013.3
04 11:56 NW 7 10.00 Fair CLR 37 26.1 65% 32 29.95 1014.4
04 10:56 NW 7 10.00 Fair CLR 34 25 70% 29 29.96 1015.0
04 09:56 Vrbl 7 10.00 Fair CLR 32 25 32 27 75% 26 29.98 1015.5
04 08:56 N 12 10.00 Fair CLR 30 25 82% 21 30 1016.1
04 07:56 NW 9 10.00 Fair CLR 28.9 25 85% 21 30.01 1016.4
04 06:56 NW 9 10.00 Fair CLR 28.9 25 85% 21 30.02 1017.0
04 05:56 N 6 10.00 Fair CLR 28 25 88% 22 30.03 1017.4
04 04:56 NW 8 10.00 Fair CLR 28.9 25 85% 22 30.04 1017.4
04 03:56 Vrbl 3 10.00 Fair CLR 26.1 25 39 26.1 96% 30.05 1017.8
04 02:56 W 3 10.00 Fair CLR 27 25 92% 30.06 1018.2
04 01:56 W 5 10.00 Fair CLR 30 26.1 85% 26 30.07 1018.4
04 00:56 Vrbl 3 10.00 Fair CLR 30.9 26.1 82% 30.07 1018.5
03 23:56 NW 5 10.00 Fair CLR 33.1 26.1 75% 29 30.07 1018.5
03 22:56 NW 6 10.00 Fair CLR 36 23 59% 32 30.06 1018.2
03 21:56 NW 3 10.00 Fair CLR 39 25 42.1 36 57% 30.06 1018.3
03 20:56 NW 6 10.00 Fair CLR 41 26.1 55% 38 30.06 1018.2
03 19:56 N 3 10.00 Fair CLR 41 27 57% 30.06 1018.4
Date Time (akdt) Wind (mph) Vis. (mi.) Weather Sky Cond. Air Dwpt Max. Min. Relative Humidity Wind Chill (°F) Heat Index (°F) altimeter (in) sea level (mb) 1 hr 3 hr 6 hr
6 hour
Temperature (ºF) Pressure Precipitation (in)